Decoded Metar for GCTS (TENERIFE in SPAIN) (IATA:TFS) | Meteo·Mobile Aviation Weather
aviador You're here:

GCTS Decoded Metar

TENERIFE in SPAIN
Report Time2019-01-23 07:00:00
UTC Time2019-01-23 07:25:33
Flight Rules vfr VFR
Wind040° at 10 kt
W.Decomp.*RWY 08: 8.3 kt HW 5.6 kt LCW
W.Rank040° ranks 7
Current wind is above 040° avg. (7.3)
Visibility9999 m
Phenomena:N/A
Clouds:Few 030 Hf
Expected CloudBase > 3,600 ft AGL from Temp-Dew spread
CeilingNone
Temp15°C (ISA 0)
Dew Point06°C (55% RH)
AAT10.5°C
QNH1025 hPa
Density Alt16 ft
Elevation236 ft
Report Wrong Elevation
Raw Report
GCTS 230700Z 04010KT 020V080 9999 FEW030 15/06 Q1025 NOSIG=

Extra information for GCTS:More info

Metar Taf Metar & Taf Last 4 Metars F.Rules Stats Wind Profile Meteogram Temp Stats Airport Information Weather charts Add Link Nearby VenuesMetar ALERT Operation Metar Decoded Social comments